createdAt,value
2022-08-19T00:01:56.804Z,2.13
2022-08-19T00:04:28.479Z,3.10
2022-08-19T00:06:55.759Z,2.57
2022-08-19T00:09:24.527Z,2.93
2022-08-19T00:11:56.609Z,3.50
2022-08-19T00:14:25.750Z,3.80
2022-08-19T00:16:55.373Z,3.13
2022-08-19T00:19:25.705Z,2.73
2022-08-19T00:21:53.521Z,2.67
2022-08-19T00:24:21.014Z,2.70
2022-08-19T00:26:51.682Z,3.00
2022-08-19T00:29:21.258Z,3.17
2022-08-19T00:31:48.655Z,2.80
2022-08-19T00:34:18.139Z,2.67
2022-08-19T00:36:45.782Z,3.07
2022-08-19T00:39:13.966Z,2.97
2022-08-19T00:41:42.004Z,3.07
2022-08-19T00:44:16.403Z,2.17
2022-08-19T00:46:51.609Z,2.77
2022-08-19T00:49:33.869Z,2.73
2022-08-19T00:52:13.310Z,2.97
2022-08-19T00:54:41.822Z,2.90
2022-08-19T00:57:14.196Z,2.53
2022-08-19T00:59:56.526Z,2.20
2022-08-19T01:02:31.253Z,2.33
2022-08-19T01:04:58.759Z,3.13
2022-08-19T01:07:26.078Z,2.53
2022-08-19T01:09:53.616Z,2.33
2022-08-19T01:12:21.369Z,2.40
2022-08-19T01:14:49.227Z,2.90
2022-08-19T01:17:17.287Z,2.73
2022-08-19T01:19:46.912Z,2.60
2022-08-19T01:22:30.187Z,2.20
2022-08-19T01:25:00.389Z,2.63
2022-08-19T01:27:29.514Z,2.57
2022-08-19T01:30:00.992Z,2.97
2022-08-19T01:32:33.928Z,2.27
2022-08-19T01:35:03.210Z,1.97
2022-08-19T01:37:31.665Z,2.23
2022-08-19T01:39:58.980Z,3.03
2022-08-19T01:42:30.212Z,2.60
2022-08-19T01:44:58.299Z,2.87
2022-08-19T01:47:25.440Z,2.20
2022-08-19T01:49:52.572Z,2.40
2022-08-19T01:52:20.546Z,1.80
2022-08-19T01:54:47.656Z,2.30
2022-08-19T01:57:16.089Z,1.70
2022-08-19T01:59:45.756Z,2.00
2022-08-19T02:02:13.064Z,2.07
2022-08-19T02:04:40.357Z,2.23
2022-08-19T02:07:09.206Z,1.57
2022-08-19T02:09:37.062Z,1.63
2022-08-19T02:12:05.896Z,1.90
2022-08-19T02:14:35.834Z,2.00
2022-08-19T02:17:03.172Z,1.93
2022-08-19T02:19:30.271Z,1.83
2022-08-19T02:21:57.502Z,1.70
2022-08-19T02:24:24.588Z,1.80
2022-08-19T02:26:52.401Z,1.80
2022-08-19T02:29:20.426Z,1.90
2022-08-19T02:31:47.794Z,1.77
2022-08-19T02:34:15.236Z,1.73
2022-08-19T02:36:42.737Z,1.80
2022-08-19T02:39:10.791Z,2.40
2022-08-19T02:41:38.363Z,1.73
2022-08-19T02:44:29.824Z,2.10
2022-08-19T02:46:53.692Z,2.23
2022-08-19T02:49:21.183Z,2.27
2022-08-19T02:51:48.771Z,1.83
2022-08-19T02:54:16.304Z,2.00
2022-08-19T02:56:44.724Z,2.07
2022-08-19T02:59:13.020Z,1.60
2022-08-19T03:01:43.336Z,1.60
2022-08-19T03:04:13.794Z,1.80
2022-08-19T03:06:42.878Z,2.47
2022-08-19T03:09:10.765Z,2.10
2022-08-19T03:11:38.862Z,1.83
2022-08-19T03:14:09.271Z,2.03
2022-08-19T03:16:46.097Z,1.83
2022-08-19T03:19:14.418Z,1.80
2022-08-19T03:21:43.477Z,1.80
2022-08-19T03:24:10.720Z,1.80
2022-08-19T03:26:48.077Z,2.63
2022-08-19T03:29:24.569Z,2.00
2022-08-19T03:31:59.711Z,2.40
2022-08-19T03:34:30.771Z,2.33
2022-08-19T03:37:03.820Z,1.70
2022-08-19T03:39:31.170Z,1.97
2022-08-19T03:42:30.100Z,2.40
2022-08-19T03:44:46.869Z,2.27
2022-08-19T03:47:17.307Z,2.53
2022-08-19T03:49:45.108Z,1.90
2022-08-19T03:52:12.579Z,2.57
2022-08-19T03:54:41.082Z,2.50
2022-08-19T03:57:09.945Z,2.77
2022-08-19T03:59:38.885Z,2.00
2022-08-19T04:02:11.145Z,2.30
2022-08-19T04:04:41.193Z,2.87
2022-08-19T04:07:10.514Z,2.77
2022-08-19T04:09:38.059Z,3.17
2022-08-19T04:12:06.545Z,2.13
2022-08-19T04:14:34.987Z,2.17
2022-08-19T04:17:06.055Z,2.57
2022-08-19T04:19:35.743Z,2.47
2022-08-19T04:22:03.479Z,2.37
2022-08-19T04:24:32.129Z,2.10
2022-08-19T04:27:01.984Z,2.60
2022-08-19T04:29:29.944Z,2.83
2022-08-19T04:31:58.239Z,2.23
2022-08-19T04:34:27.620Z,2.80
2022-08-19T04:36:56.858Z,2.30
2022-08-19T04:39:52.809Z,2.80
2022-08-19T04:42:41.406Z,2.63
2022-08-19T04:45:13.211Z,2.40
2022-08-19T04:47:47.857Z,3.07
2022-08-19T04:50:25.974Z,3.67
2022-08-19T04:52:53.677Z,4.47
2022-08-19T04:55:21.075Z,4.17
2022-08-19T04:57:48.606Z,4.10
2022-08-19T05:00:15.963Z,4.43
2022-08-19T05:02:43.309Z,3.87
2022-08-19T05:05:10.658Z,3.30
2022-08-19T05:07:38.151Z,3.43
2022-08-19T05:10:06.862Z,5.13
2022-08-19T05:12:34.371Z,4.80
2022-08-19T05:15:04.045Z,4.70
2022-08-19T05:17:34.865Z,5.53
2022-08-19T05:20:25.127Z,5.93
2022-08-19T05:22:53.867Z,7.03
2022-08-19T05:25:24.565Z,8.27
2022-08-19T05:27:52.107Z,8.63
2022-08-19T05:30:33.375Z,8.80
2022-08-19T05:33:11.207Z,8.47
2022-08-19T05:35:40.254Z,6.97
2022-08-19T05:38:10.287Z,6.20
2022-08-19T05:40:38.556Z,5.70
2022-08-19T05:43:07.979Z,5.90
2022-08-19T05:45:40.567Z,6.83
2022-08-19T05:48:08.077Z,8.33
2022-08-19T05:50:37.027Z,4.80
2022-08-19T05:53:04.674Z,4.10
2022-08-19T05:55:33.047Z,3.87
2022-08-19T05:58:00.611Z,3.00
2022-08-19T06:00:27.785Z,3.03
2022-08-19T06:02:57.653Z,2.57
2022-08-19T06:18:22.964Z,1.80
2022-08-19T06:20:55.863Z,1.50
2022-08-19T06:23:24.139Z,0.80
2022-08-19T06:25:51.581Z,1.07
2022-08-19T06:28:18.940Z,0.67
2022-08-19T06:30:46.276Z,1.00
2022-08-19T06:33:13.407Z,1.03
2022-08-19T06:38:10.637Z,0.60
2022-08-19T06:40:39.101Z,0.70
2022-08-19T06:43:07.674Z,1.10
2022-08-19T06:45:39.779Z,0.90
2022-08-19T06:48:08.016Z,1.57
2022-08-19T06:50:35.148Z,1.53
2022-08-19T06:53:06.908Z,2.70
2022-08-19T06:55:34.025Z,2.43
2022-08-19T06:58:04.845Z,2.63
2022-08-19T07:00:32.557Z,3.13
2022-08-19T07:03:06.165Z,3.07
2022-08-19T07:05:45.698Z,3.50
2022-08-19T07:08:14.295Z,2.93
2022-08-19T07:10:45.669Z,2.37
2022-08-19T07:13:12.805Z,2.70
2022-08-19T07:15:39.993Z,2.80
2022-08-19T07:18:07.240Z,2.80
2022-08-19T07:20:40.297Z,2.40
2022-08-19T07:23:09.461Z,3.07
2022-08-19T07:25:43.652Z,2.97
2022-08-19T07:28:23.953Z,2.67
2022-08-19T07:30:51.801Z,3.30
2022-08-19T07:33:20.300Z,3.00
2022-08-19T07:35:47.608Z,3.07
2022-08-19T07:38:15.938Z,2.63
2022-08-19T07:40:44.058Z,3.37
2022-08-19T07:43:14.048Z,3.13
2022-08-19T07:45:44.330Z,2.97
2022-08-19T07:48:11.499Z,2.50
2022-08-19T07:50:38.827Z,2.70
2022-08-19T07:53:05.899Z,2.53
2022-08-19T07:55:42.234Z,2.30
2022-08-19T07:58:15.819Z,2.47
2022-08-19T08:00:45.178Z,2.40
2022-08-19T08:03:13.128Z,2.20
2022-08-19T08:05:58.573Z,2.40
2022-08-19T08:08:47.339Z,2.17
2022-08-19T08:11:18.010Z,2.10
2022-08-19T08:13:47.767Z,2.00
2022-08-19T08:16:32.309Z,1.87
2022-08-19T08:19:00.357Z,2.23
2022-08-19T08:21:28.397Z,1.63
2022-08-19T08:23:56.738Z,1.73
2022-08-19T08:26:26.059Z,1.90
2022-08-19T08:28:54.207Z,1.63
2022-08-19T08:31:21.617Z,1.47
2022-08-19T08:33:48.687Z,1.80
2022-08-19T08:36:16.660Z,1.90
2022-08-19T08:38:47.633Z,1.93
2022-08-19T08:41:45.359Z,1.47
2022-08-19T08:44:22.015Z,1.70
2022-08-19T08:47:03.575Z,2.00
2022-08-19T08:49:37.742Z,1.50
2022-08-19T08:52:08.392Z,1.70
2022-08-19T08:54:49.198Z,2.07
2022-08-19T08:57:37.074Z,1.60
2022-08-19T09:00:31.310Z,1.63
2022-08-19T09:03:00.669Z,2.03
2022-08-19T09:05:48.672Z,1.90
2022-08-19T09:08:39.140Z,1.83
2022-08-19T09:11:10.751Z,2.20
2022-08-19T09:13:50.898Z,1.73
2022-08-19T09:16:27.887Z,2.27
2022-08-19T09:19:01.827Z,1.30
2022-08-19T09:21:33.134Z,1.70
2022-08-19T09:24:01.076Z,1.67
2022-08-19T09:26:47.627Z,2.10
2022-08-19T09:29:19.521Z,1.50
2022-08-19T09:31:50.994Z,1.37
2022-08-19T09:34:21.144Z,1.00
2022-08-19T09:36:54.723Z,0.97
2022-08-19T09:39:22.706Z,1.17
2022-08-19T09:41:50.968Z,1.03
2022-08-19T09:44:21.215Z,1.10
2022-08-19T09:46:49.157Z,0.97
2022-08-19T09:49:18.724Z,0.93
2022-08-19T09:51:50.845Z,1.07
2022-08-19T09:54:23.418Z,1.00
2022-08-19T09:56:53.551Z,0.93
2022-08-19T09:59:20.684Z,1.00
2022-08-19T10:01:48.296Z,1.07
2022-08-19T10:04:20.536Z,1.00
2022-08-19T10:06:53.425Z,0.77
2022-08-19T10:09:26.166Z,0.90
2022-08-19T10:11:54.847Z,1.60
2022-08-19T10:14:24.664Z,0.90
2022-08-19T10:16:52.998Z,0.73
2022-08-19T10:19:25.798Z,0.63
2022-08-19T10:21:55.661Z,0.83
2022-08-19T10:24:28.989Z,1.00
2022-08-19T10:26:57.308Z,0.60
2022-08-19T10:29:31.841Z,0.80
2022-08-19T10:32:09.788Z,0.90
2022-08-19T10:34:47.876Z,1.00
2022-08-19T10:37:15.727Z,0.70
2022-08-19T10:39:51.867Z,0.87
2022-08-19T10:42:20.221Z,1.03
2022-08-19T10:44:52.014Z,1.20
2022-08-19T10:47:25.557Z,1.13
2022-08-19T10:50:17.340Z,0.80
2022-08-19T10:52:49.848Z,0.90
2022-08-19T10:55:39.644Z,0.53
2022-08-19T10:58:15.193Z,0.90
2022-08-19T11:00:44.257Z,0.87
2022-08-19T11:03:11.793Z,0.93
2022-08-19T11:05:40.588Z,0.60
2022-08-19T11:08:22.419Z,0.70
2022-08-19T11:10:58.564Z,0.70
2022-08-19T11:13:26.107Z,0.70
2022-08-19T11:16:05.284Z,0.80
2022-08-19T11:18:38.682Z,0.80
2022-08-19T11:21:12.255Z,0.70
2022-08-19T11:23:39.645Z,0.50
2022-08-19T11:26:07.198Z,0.50
2022-08-19T11:28:34.366Z,0.67
2022-08-19T11:31:01.514Z,0.93
2022-08-19T11:33:28.612Z,0.77
2022-08-19T11:35:57.560Z,0.97
2022-08-19T11:38:24.582Z,0.80
2022-08-19T11:41:02.361Z,1.20
2022-08-19T11:43:32.387Z,1.00
2022-08-19T11:46:16.708Z,1.13
2022-08-19T11:48:44.484Z,1.20
2022-08-19T11:51:14.494Z,0.83
2022-08-19T11:53:42.089Z,1.17
2022-08-19T11:56:10.526Z,1.17
2022-08-19T11:58:38.485Z,0.93
2022-08-19T12:01:10.374Z,0.87
2022-08-19T12:03:37.828Z,0.90
2022-08-19T12:06:09.141Z,0.87
2022-08-19T12:08:37.725Z,1.00
2022-08-19T12:11:05.157Z,1.20
2022-08-19T12:13:32.554Z,0.80
2022-08-19T12:16:00.487Z,0.77
2022-08-19T12:18:27.981Z,0.90
2022-08-19T12:20:58.394Z,1.00
2022-08-19T12:23:25.579Z,1.20
2022-08-19T12:25:52.866Z,0.90
2022-08-19T12:28:22.146Z,1.00
2022-08-19T12:30:52.071Z,0.63
2022-08-19T12:33:20.819Z,0.83
2022-08-19T12:35:47.946Z,0.70
2022-08-19T12:38:15.710Z,168.77
2022-08-19T12:40:46.845Z,27.13
2022-08-19T12:43:14.924Z,386.07
2022-08-19T12:45:43.518Z,840.20
2022-08-19T12:48:34.889Z,534.57
2022-08-19T12:50:58.300Z,136.90
2022-08-19T12:53:26.095Z,13.33
2022-08-19T12:55:58.304Z,36.60
2022-08-19T12:58:27.363Z,7.17
2022-08-19T13:00:54.925Z,2.60
2022-08-19T13:03:28.443Z,3.77
2022-08-19T13:05:55.704Z,0.90
2022-08-19T13:08:23.157Z,0.90
2022-08-19T13:10:51.858Z,1.00
2022-08-19T13:13:18.988Z,1.00
2022-08-19T13:15:46.450Z,0.87
2022-08-19T13:18:15.310Z,1.00
2022-08-19T13:20:42.932Z,0.90
2022-08-19T13:23:19.756Z,0.70
2022-08-19T13:25:56.352Z,0.80
2022-08-19T13:28:29.287Z,0.63
2022-08-19T13:31:19.903Z,0.70
2022-08-19T13:33:46.999Z,0.80
2022-08-19T13:36:14.177Z,0.80
2022-08-19T13:38:42.557Z,0.50
2022-08-19T13:41:14.679Z,0.93
2022-08-19T13:43:42.444Z,0.70
2022-08-19T13:46:14.284Z,0.87
2022-08-19T13:48:41.912Z,0.80
2022-08-19T13:51:12.782Z,0.43
2022-08-19T13:53:47.409Z,0.63
2022-08-19T13:56:18.062Z,0.80
2022-08-19T13:58:45.173Z,0.50
2022-08-19T14:01:12.760Z,0.60
2022-08-19T14:03:40.204Z,0.50
2022-08-19T14:06:07.499Z,0.50
2022-08-19T14:08:34.692Z,1.13
2022-08-19T14:11:06.312Z,0.70
2022-08-19T14:13:35.041Z,0.93
2022-08-19T14:16:02.214Z,1.13
2022-08-19T14:18:29.259Z,0.60
2022-08-19T14:20:58.022Z,0.93
2022-08-19T14:23:26.425Z,0.70
2022-08-19T14:25:53.564Z,0.70
2022-08-19T14:28:20.657Z,0.70
2022-08-19T14:30:55.225Z,0.50
2022-08-19T14:33:23.905Z,0.47
2022-08-19T14:35:59.712Z,0.80
2022-08-19T14:38:31.359Z,0.80
2022-08-19T14:41:12.332Z,0.67
2022-08-19T14:43:39.682Z,0.77
2022-08-19T14:46:07.702Z,0.60
2022-08-19T14:48:41.503Z,0.57
2022-08-19T14:51:09.757Z,0.60
2022-08-19T14:53:37.336Z,1.30
2022-08-19T14:56:13.220Z,0.73
2022-08-19T14:58:42.970Z,0.87
2022-08-19T15:01:11.527Z,1.10
2022-08-19T15:03:42.155Z,1.10
2022-08-19T15:06:09.791Z,0.90
2022-08-19T15:08:42.065Z,0.97
2022-08-19T15:11:13.167Z,1.00
2022-08-19T15:13:40.622Z,0.97
2022-08-19T15:16:17.013Z,1.03
2022-08-19T15:18:47.281Z,1.07
2022-08-19T15:21:17.509Z,1.00
2022-08-19T15:23:55.764Z,0.70
2022-08-19T15:26:22.897Z,0.63
2022-08-19T15:28:50.239Z,1.03
2022-08-19T15:31:25.173Z,1.00
2022-08-19T15:33:58.337Z,0.70
2022-08-19T15:36:27.256Z,0.83
2022-08-19T15:38:55.633Z,0.90
2022-08-19T15:41:25.920Z,0.90
2022-08-19T15:44:02.340Z,0.97
2022-08-19T15:46:32.047Z,0.90
2022-08-19T15:49:00.521Z,1.00
2022-08-19T15:51:31.660Z,1.07
2022-08-19T15:54:00.391Z,1.07
2022-08-19T15:56:47.709Z,0.80
2022-08-19T15:59:46.910Z,0.90
2022-08-19T16:02:34.313Z,0.70
2022-08-19T16:05:20.292Z,0.87
2022-08-19T16:07:48.090Z,0.63
2022-08-19T16:10:26.241Z,1.10
2022-08-19T16:12:55.592Z,0.70
2022-08-19T16:15:22.844Z,0.70
2022-08-19T16:17:57.056Z,0.87
2022-08-19T16:20:26.455Z,0.87
2022-08-19T16:22:54.642Z,0.83
2022-08-19T16:25:29.010Z,0.70
2022-08-19T16:28:07.124Z,0.63
2022-08-19T16:30:37.427Z,0.50
2022-08-19T16:33:04.511Z,0.53
2022-08-19T16:35:31.550Z,0.83
2022-08-19T16:37:58.550Z,1.20
2022-08-19T16:40:25.695Z,0.93
2022-08-19T16:42:53.723Z,0.83
2022-08-19T16:45:22.041Z,1.37
2022-08-19T16:47:49.118Z,0.80
2022-08-19T16:50:22.179Z,0.80
2022-08-19T16:52:58.475Z,0.97
2022-08-19T16:55:28.082Z,0.90
2022-08-19T16:57:55.423Z,0.93
2022-08-19T17:00:22.785Z,1.00
2022-08-19T17:02:50.085Z,0.90
2022-08-19T17:05:17.527Z,1.10
2022-08-19T17:07:44.650Z,0.80
2022-08-19T17:10:11.940Z,0.90
2022-08-19T17:12:39.127Z,1.07
2022-08-19T17:15:08.437Z,1.00
2022-08-19T17:17:37.328Z,1.00
2022-08-19T17:20:06.428Z,0.90
2022-08-19T17:22:35.828Z,1.57
2022-08-19T17:25:03.744Z,1.27
2022-08-19T17:27:32.261Z,0.80
2022-08-19T17:30:04.659Z,1.10
2022-08-19T17:32:35.704Z,0.83
2022-08-19T17:35:04.170Z,0.87
2022-08-19T17:37:31.548Z,0.80
2022-08-19T17:39:58.773Z,1.07
2022-08-19T17:42:26.380Z,0.80
2022-08-19T17:44:53.424Z,1.10
2022-08-19T17:47:21.300Z,0.50
2022-08-19T17:49:48.396Z,1.00
2022-08-19T17:52:15.496Z,0.70
2022-08-19T17:54:42.555Z,1.00
2022-08-19T17:57:09.754Z,1.00
2022-08-19T17:59:37.654Z,0.80
2022-08-19T18:02:07.182Z,0.80
2022-08-19T18:04:38.480Z,1.13
2022-08-19T18:07:06.573Z,0.90
2022-08-19T18:09:42.414Z,1.07
2022-08-19T18:12:16.453Z,1.10
2022-08-19T18:14:43.842Z,1.00
2022-08-19T18:17:13.198Z,1.40
2022-08-19T18:19:43.400Z,1.07
2022-08-19T18:22:22.555Z,0.90
2022-08-19T18:24:49.721Z,1.17
2022-08-19T18:27:17.069Z,1.60
2022-08-19T18:29:45.303Z,1.30
2022-08-19T18:32:12.936Z,1.43
2022-08-19T18:34:44.492Z,1.40
2022-08-19T18:37:12.290Z,1.50
2022-08-19T18:39:58.064Z,2.13
2022-08-19T18:42:43.567Z,1.70
2022-08-19T18:45:30.011Z,1.67
2022-08-19T18:48:27.491Z,1.83
2022-08-19T18:50:57.706Z,1.20
2022-08-19T18:53:26.581Z,1.10
2022-08-19T18:55:55.411Z,1.37
2022-08-19T18:58:34.264Z,0.93
2022-08-19T19:01:10.732Z,1.00
2022-08-19T19:03:45.360Z,1.00
2022-08-19T19:06:19.085Z,1.00
2022-08-19T19:08:48.255Z,1.73
2022-08-19T19:11:27.924Z,1.10
2022-08-19T19:13:55.229Z,1.30
2022-08-19T19:16:24.393Z,1.03
2022-08-19T19:18:52.695Z,1.30
2022-08-19T19:21:23.000Z,1.77
2022-08-19T19:23:50.697Z,2.20
2022-08-19T19:26:18.039Z,0.80
2022-08-19T19:28:45.873Z,1.33
2022-08-19T19:31:28.914Z,1.70
2022-08-19T19:33:56.552Z,1.40
2022-08-19T19:36:23.906Z,1.10
2022-08-19T19:38:51.134Z,1.53
2022-08-19T19:41:24.761Z,1.30
2022-08-19T19:44:29.959Z,1.40
2022-08-19T19:46:45.804Z,1.70
2022-08-19T19:49:13.748Z,1.70
2022-08-19T19:51:42.018Z,1.60
2022-08-19T19:54:15.589Z,1.50
2022-08-19T19:56:45.037Z,1.70
2022-08-19T19:59:12.607Z,1.63
2022-08-19T20:01:40.805Z,1.80
2022-08-19T20:04:15.045Z,1.40
2022-08-19T20:06:43.065Z,1.57
2022-08-19T20:09:10.912Z,1.80
2022-08-19T20:11:45.934Z,1.60
2022-08-19T20:14:19.589Z,1.73
2022-08-19T20:16:48.139Z,1.63
2022-08-19T20:19:17.820Z,1.50
2022-08-19T20:21:50.733Z,2.00
2022-08-19T20:24:23.745Z,2.67
2022-08-19T20:26:53.377Z,2.23
2022-08-19T20:29:40.037Z,3.27
2022-08-19T20:32:10.126Z,2.40
2022-08-19T20:34:37.416Z,2.40
2022-08-19T20:37:04.803Z,2.03
2022-08-19T20:39:32.025Z,1.80
2022-08-19T20:42:00.760Z,2.17
2022-08-19T20:44:27.952Z,1.70
2022-08-19T20:46:57.580Z,1.67
2022-08-19T20:49:27.055Z,1.53
2022-08-19T20:51:55.907Z,1.60
2022-08-19T20:54:24.185Z,1.90
2022-08-19T20:56:51.840Z,1.67
2022-08-19T20:59:20.124Z,1.50
2022-08-19T21:01:48.473Z,2.30
2022-08-19T21:04:15.544Z,2.03
2022-08-19T21:06:45.176Z,1.87
2022-08-19T21:09:13.618Z,2.07
2022-08-19T21:11:41.075Z,1.83
2022-08-19T21:14:08.399Z,1.80
2022-08-19T21:16:35.596Z,1.40
2022-08-19T21:19:02.732Z,1.67
2022-08-19T21:21:29.724Z,1.60
2022-08-19T21:23:56.959Z,1.53
2022-08-19T21:26:24.461Z,1.57
2022-08-19T21:28:51.547Z,2.00
2022-08-19T21:31:18.768Z,1.97
2022-08-19T21:33:45.799Z,1.43
2022-08-19T21:36:12.879Z,2.37
2022-08-19T21:38:40.688Z,1.50
2022-08-19T21:41:07.899Z,1.63
2022-08-19T21:43:36.187Z,2.00
2022-08-19T21:46:03.781Z,1.60
2022-08-19T21:48:30.877Z,1.83
2022-08-19T21:50:57.897Z,2.10
2022-08-19T21:53:24.944Z,2.03
2022-08-19T21:55:58.712Z,1.53
2022-08-19T21:58:29.274Z,1.97
2022-08-19T22:01:05.922Z,1.70
2022-08-19T22:03:34.354Z,1.63
2022-08-19T22:06:01.645Z,1.87
2022-08-19T22:08:29.328Z,2.20
2022-08-19T22:10:56.417Z,1.93
2022-08-19T22:13:23.682Z,2.20
2022-08-19T22:15:52.007Z,3.07
2022-08-19T22:18:19.144Z,3.13
2022-08-19T22:20:46.495Z,3.33
2022-08-19T22:23:14.137Z,3.87
2022-08-19T22:25:47.096Z,3.50
2022-08-19T22:28:19.074Z,4.40
2022-08-19T22:30:56.388Z,4.40
2022-08-19T22:33:25.730Z,4.20
2022-08-19T22:35:53.422Z,3.67
2022-08-19T22:38:20.481Z,3.97
2022-08-19T22:40:49.509Z,3.73
2022-08-19T22:43:19.689Z,4.47
2022-08-19T22:45:48.649Z,4.43
2022-08-19T22:48:18.113Z,4.83
2022-08-19T22:51:05.118Z,4.43
2022-08-19T22:53:33.906Z,4.53
2022-08-19T22:56:01.025Z,5.23
2022-08-19T22:58:28.440Z,5.00
2022-08-19T23:00:56.235Z,5.10
2022-08-19T23:03:23.620Z,4.33
2022-08-19T23:05:51.222Z,4.57
2022-08-19T23:08:19.871Z,5.40
2022-08-19T23:10:49.974Z,5.33
2022-08-19T23:13:17.843Z,4.90
2022-08-19T23:15:46.277Z,5.23
2022-08-19T23:18:13.936Z,5.10
2022-08-19T23:20:43.389Z,5.67
2022-08-19T23:23:13.335Z,5.17
2022-08-19T23:25:40.913Z,5.57
2022-08-19T23:28:26.421Z,6.60
2022-08-19T23:30:53.850Z,6.90
2022-08-19T23:33:46.486Z,6.60
2022-08-19T23:36:19.285Z,6.13
2022-08-19T23:38:48.744Z,6.40
2022-08-19T23:41:18.217Z,6.93
2022-08-19T23:43:45.897Z,6.43
2022-08-19T23:46:27.744Z,7.03
2022-08-19T23:48:56.201Z,7.97
2022-08-19T23:51:23.448Z,7.03
2022-08-19T23:53:50.484Z,7.63
2022-08-19T23:56:17.617Z,6.93
2022-08-19T23:58:45.585Z,7.47
